sensor_id;sensor_type;location;lat;lon;timestamp;P1;durP1;ratioP1;P2;durP2;ratioP2
9675;SDS011;4876;42.656;23.292;2023-03-05T00:00:38;31.47;;;21.27;;
9675;SDS011;4876;42.656;23.292;2023-03-05T00:03:05;30.83;;;22.70;;
9675;SDS011;4876;42.656;23.292;2023-03-05T00:05:32;41.60;;;23.53;;
9675;SDS011;4876;42.656;23.292;2023-03-05T00:07:59;37.00;;;22.73;;
9675;SDS011;4876;42.656;23.292;2023-03-05T00:10:26;35.57;;;22.07;;
9675;SDS011;4876;42.656;23.292;2023-03-05T00:12:54;36.33;;;22.50;;
9675;SDS011;4876;42.656;23.292;2023-03-05T00:15:21;34.17;;;21.23;;
9675;SDS011;4876;42.656;23.292;2023-03-05T00:17:48;32.77;;;22.03;;
9675;SDS011;4876;42.656;23.292;2023-03-05T00:20:15;39.57;;;20.63;;
9675;SDS011;4876;42.656;23.292;2023-03-05T00:22:42;39.03;;;22.27;;
9675;SDS011;4876;42.656;23.292;2023-03-05T00:25:08;31.83;;;20.90;;
9675;SDS011;4876;42.656;23.292;2023-03-05T00:27:35;36.83;;;21.03;;
9675;SDS011;4876;42.656;23.292;2023-03-05T00:30:04;32.40;;;19.97;;
9675;SDS011;4876;42.656;23.292;2023-03-05T00:32:32;33.93;;;20.53;;
9675;SDS011;4876;42.656;23.292;2023-03-05T00:35:00;29.40;;;19.63;;
9675;SDS011;4876;42.656;23.292;2023-03-05T00:37:27;29.13;;;17.87;;
9675;SDS011;4876;42.656;23.292;2023-03-05T00:39:53;34.00;;;17.90;;
9675;SDS011;4876;42.656;23.292;2023-03-05T00:42:20;30.43;;;18.47;;
9675;SDS011;4876;42.656;23.292;2023-03-05T00:44:47;23.73;;;14.97;;
9675;SDS011;4876;42.656;23.292;2023-03-05T00:47:15;22.07;;;15.33;;
9675;SDS011;4876;42.656;23.292;2023-03-05T00:49:42;30.77;;;17.20;;
9675;SDS011;4876;42.656;23.292;2023-03-05T00:52:09;27.97;;;16.67;;
9675;SDS011;4876;42.656;23.292;2023-03-05T00:54:36;31.60;;;15.83;;
9675;SDS011;4876;42.656;23.292;2023-03-05T00:57:03;26.83;;;15.37;;
9675;SDS011;4876;42.656;23.292;2023-03-05T00:59:30;27.50;;;15.60;;
9675;SDS011;4876;42.656;23.292;2023-03-05T01:01:57;24.60;;;14.30;;
9675;SDS011;4876;42.656;23.292;2023-03-05T01:04:25;23.77;;;13.83;;
9675;SDS011;4876;42.656;23.292;2023-03-05T01:06:52;25.83;;;15.77;;
9675;SDS011;4876;42.656;23.292;2023-03-05T01:09:19;24.63;;;14.60;;
9675;SDS011;4876;42.656;23.292;2023-03-05T01:11:49;23.60;;;14.87;;
9675;SDS011;4876;42.656;23.292;2023-03-05T01:14:16;24.80;;;14.80;;
9675;SDS011;4876;42.656;23.292;2023-03-05T01:16:43;27.97;;;15.53;;
9675;SDS011;4876;42.656;23.292;2023-03-05T01:19:10;24.87;;;14.97;;
9675;SDS011;4876;42.656;23.292;2023-03-05T01:21:38;21.50;;;14.80;;
9675;SDS011;4876;42.656;23.292;2023-03-05T01:24:06;22.17;;;14.77;;
9675;SDS011;4876;42.656;23.292;2023-03-05T01:26:33;25.83;;;14.30;;
9675;SDS011;4876;42.656;23.292;2023-03-05T01:29:00;25.97;;;15.03;;
9675;SDS011;4876;42.656;23.292;2023-03-05T01:31:27;20.03;;;13.87;;
9675;SDS011;4876;42.656;23.292;2023-03-05T01:33:54;24.47;;;13.83;;
9675;SDS011;4876;42.656;23.292;2023-03-05T01:36:21;22.40;;;13.37;;
9675;SDS011;4876;42.656;23.292;2023-03-05T01:38:50;19.90;;;13.30;;
9675;SDS011;4876;42.656;23.292;2023-03-05T01:41:17;23.83;;;13.47;;
9675;SDS011;4876;42.656;23.292;2023-03-05T01:43:45;21.83;;;13.10;;
9675;SDS011;4876;42.656;23.292;2023-03-05T01:49:06;23.80;;;14.00;;
9675;SDS011;4876;42.656;23.292;2023-03-05T01:51:42;29.10;;;15.33;;
9675;SDS011;4876;42.656;23.292;2023-03-05T01:54:17;26.33;;;13.53;;
9675;SDS011;4876;42.656;23.292;2023-03-05T01:56:46;22.27;;;14.23;;
9675;SDS011;4876;42.656;23.292;2023-03-05T01:59:15;22.43;;;14.17;;
9675;SDS011;4876;42.656;23.292;2023-03-05T02:01:43;20.13;;;14.67;;
9675;SDS011;4876;42.656;23.292;2023-03-05T02:04:13;20.90;;;13.03;;
9675;SDS011;4876;42.656;23.292;2023-03-05T02:06:42;28.70;;;14.73;;
9675;SDS011;4876;42.656;23.292;2023-03-05T02:09:10;22.47;;;14.07;;
9675;SDS011;4876;42.656;23.292;2023-03-05T02:11:38;22.57;;;13.97;;
9675;SDS011;4876;42.656;23.292;2023-03-05T02:14:06;20.17;;;12.63;;
9675;SDS011;4876;42.656;23.292;2023-03-05T02:16:34;24.00;;;14.03;;
9675;SDS011;4876;42.656;23.292;2023-03-05T02:19:03;20.73;;;13.80;;
9675;SDS011;4876;42.656;23.292;2023-03-05T02:21:36;21.73;;;12.80;;
9675;SDS011;4876;42.656;23.292;2023-03-05T02:24:06;26.20;;;14.17;;
9675;SDS011;4876;42.656;23.292;2023-03-05T02:26:36;22.00;;;13.83;;
9675;SDS011;4876;42.656;23.292;2023-03-05T02:29:03;24.00;;;14.60;;
9675;SDS011;4876;42.656;23.292;2023-03-05T02:31:32;24.50;;;13.93;;
9675;SDS011;4876;42.656;23.292;2023-03-05T02:33:58;24.33;;;14.30;;
9675;SDS011;4876;42.656;23.292;2023-03-05T02:36:25;21.67;;;14.27;;
9675;SDS011;4876;42.656;23.292;2023-03-05T02:38:53;26.47;;;14.40;;
9675;SDS011;4876;42.656;23.292;2023-03-05T02:41:21;26.10;;;14.03;;
9675;SDS011;4876;42.656;23.292;2023-03-05T02:43:48;22.67;;;14.83;;
9675;SDS011;4876;42.656;23.292;2023-03-05T02:46:15;19.73;;;14.03;;
9675;SDS011;4876;42.656;23.292;2023-03-05T02:48:42;21.73;;;13.77;;
9675;SDS011;4876;42.656;23.292;2023-03-05T02:51:10;25.60;;;14.87;;
9675;SDS011;4876;42.656;23.292;2023-03-05T02:53:36;28.33;;;14.63;;
9675;SDS011;4876;42.656;23.292;2023-03-05T02:56:05;26.43;;;14.33;;
9675;SDS011;4876;42.656;23.292;2023-03-05T02:58:32;20.30;;;13.63;;
9675;SDS011;4876;42.656;23.292;2023-03-05T03:00:58;27.93;;;15.50;;
9675;SDS011;4876;42.656;23.292;2023-03-05T03:03:25;28.17;;;15.83;;
9675;SDS011;4876;42.656;23.292;2023-03-05T03:05:52;23.10;;;15.03;;
9675;SDS011;4876;42.656;23.292;2023-03-05T03:08:19;28.07;;;17.73;;
9675;SDS011;4876;42.656;23.292;2023-03-05T03:10:45;30.30;;;17.03;;
9675;SDS011;4876;42.656;23.292;2023-03-05T03:13:14;26.93;;;15.97;;
9675;SDS011;4876;42.656;23.292;2023-03-05T03:15:40;27.10;;;17.23;;
9675;SDS011;4876;42.656;23.292;2023-03-05T03:18:07;26.23;;;16.07;;
9675;SDS011;4876;42.656;23.292;2023-03-05T03:20:36;25.77;;;15.80;;
9675;SDS011;4876;42.656;23.292;2023-03-05T03:23:03;28.93;;;17.43;;
9675;SDS011;4876;42.656;23.292;2023-03-05T03:25:30;25.47;;;15.83;;
9675;SDS011;4876;42.656;23.292;2023-03-05T03:27:57;27.37;;;16.30;;
9675;SDS011;4876;42.656;23.292;2023-03-05T03:30:25;26.73;;;16.63;;
9675;SDS011;4876;42.656;23.292;2023-03-05T03:32:52;28.10;;;17.37;;
9675;SDS011;4876;42.656;23.292;2023-03-05T03:35:19;27.90;;;17.20;;
9675;SDS011;4876;42.656;23.292;2023-03-05T03:37:46;25.33;;;16.63;;
9675;SDS011;4876;42.656;23.292;2023-03-05T03:40:13;29.33;;;16.80;;
9675;SDS011;4876;42.656;23.292;2023-03-05T03:42:39;30.97;;;16.77;;
9675;SDS011;4876;42.656;23.292;2023-03-05T03:45:07;24.60;;;16.87;;
9675;SDS011;4876;42.656;23.292;2023-03-05T03:47:35;30.40;;;17.43;;
9675;SDS011;4876;42.656;23.292;2023-03-05T03:50:02;30.57;;;16.40;;
9675;SDS011;4876;42.656;23.292;2023-03-05T03:52:30;31.67;;;17.43;;
9675;SDS011;4876;42.656;23.292;2023-03-05T03:54:56;29.07;;;17.00;;
9675;SDS011;4876;42.656;23.292;2023-03-05T03:57:26;28.57;;;16.77;;
9675;SDS011;4876;42.656;23.292;2023-03-05T03:59:53;27.97;;;16.77;;
9675;SDS011;4876;42.656;23.292;2023-03-05T04:02:20;31.00;;;17.60;;
9675;SDS011;4876;42.656;23.292;2023-03-05T04:04:48;32.37;;;17.77;;
9675;SDS011;4876;42.656;23.292;2023-03-05T04:07:15;29.67;;;16.97;;
9675;SDS011;4876;42.656;23.292;2023-03-05T04:09:42;37.63;;;17.37;;
9675;SDS011;4876;42.656;23.292;2023-03-05T04:12:09;30.80;;;18.50;;
9675;SDS011;4876;42.656;23.292;2023-03-05T04:14:36;28.07;;;17.23;;
9675;SDS011;4876;42.656;23.292;2023-03-05T04:17:03;32.17;;;19.00;;
9675;SDS011;4876;42.656;23.292;2023-03-05T04:19:29;35.10;;;18.87;;
9675;SDS011;4876;42.656;23.292;2023-03-05T04:21:58;28.73;;;17.70;;
9675;SDS011;4876;42.656;23.292;2023-03-05T04:24:25;31.47;;;18.23;;
9675;SDS011;4876;42.656;23.292;2023-03-05T04:26:51;27.37;;;17.87;;
9675;SDS011;4876;42.656;23.292;2023-03-05T04:29:18;27.93;;;17.33;;
9675;SDS011;4876;42.656;23.292;2023-03-05T04:31:45;27.30;;;18.00;;
9675;SDS011;4876;42.656;23.292;2023-03-05T04:34:12;33.40;;;18.43;;
9675;SDS011;4876;42.656;23.292;2023-03-05T04:36:39;32.10;;;18.47;;
9675;SDS011;4876;42.656;23.292;2023-03-05T04:39:07;29.37;;;19.00;;
9675;SDS011;4876;42.656;23.292;2023-03-05T04:41:33;34.83;;;20.27;;
9675;SDS011;4876;42.656;23.292;2023-03-05T04:44:00;31.43;;;18.20;;
9675;SDS011;4876;42.656;23.292;2023-03-05T04:46:27;30.00;;;17.40;;
9675;SDS011;4876;42.656;23.292;2023-03-05T04:48:54;28.37;;;17.83;;
9675;SDS011;4876;42.656;23.292;2023-03-05T04:51:20;26.97;;;17.13;;
9675;SDS011;4876;42.656;23.292;2023-03-05T04:53:47;33.47;;;17.93;;
9675;SDS011;4876;42.656;23.292;2023-03-05T04:56:15;29.57;;;17.57;;
9675;SDS011;4876;42.656;23.292;2023-03-05T04:58:42;31.10;;;16.67;;
9675;SDS011;4876;42.656;23.292;2023-03-05T05:01:09;30.50;;;18.07;;
9675;SDS011;4876;42.656;23.292;2023-03-05T05:03:36;31.53;;;17.73;;
9675;SDS011;4876;42.656;23.292;2023-03-05T05:06:03;32.33;;;16.97;;
9675;SDS011;4876;42.656;23.292;2023-03-05T05:08:30;29.03;;;17.10;;
9675;SDS011;4876;42.656;23.292;2023-03-05T05:10:57;36.57;;;17.30;;
9675;SDS011;4876;42.656;23.292;2023-03-05T05:13:27;27.30;;;17.10;;
9675;SDS011;4876;42.656;23.292;2023-03-05T05:15:55;26.60;;;16.67;;
9675;SDS011;4876;42.656;23.292;2023-03-05T05:18:22;30.27;;;18.07;;
9675;SDS011;4876;42.656;23.292;2023-03-05T05:20:49;29.83;;;16.13;;
9675;SDS011;4876;42.656;23.292;2023-03-05T05:23:16;28.83;;;17.37;;
9675;SDS011;4876;42.656;23.292;2023-03-05T05:25:43;32.43;;;18.03;;
9675;SDS011;4876;42.656;23.292;2023-03-05T05:28:10;28.37;;;16.27;;
9675;SDS011;4876;42.656;23.292;2023-03-05T05:30:39;29.23;;;16.20;;
9675;SDS011;4876;42.656;23.292;2023-03-05T05:33:06;30.50;;;16.40;;
9675;SDS011;4876;42.656;23.292;2023-03-05T05:35:32;27.17;;;16.63;;
9675;SDS011;4876;42.656;23.292;2023-03-05T05:37:59;24.50;;;14.73;;
9675;SDS011;4876;42.656;23.292;2023-03-05T05:40:26;25.57;;;15.60;;
9675;SDS011;4876;42.656;23.292;2023-03-05T05:42:53;26.87;;;15.10;;
9675;SDS011;4876;42.656;23.292;2023-03-05T05:45:20;28.60;;;15.07;;
9675;SDS011;4876;42.656;23.292;2023-03-05T05:47:48;28.93;;;14.50;;
9675;SDS011;4876;42.656;23.292;2023-03-05T05:50:15;25.67;;;14.00;;
9675;SDS011;4876;42.656;23.292;2023-03-05T05:52:41;27.00;;;14.80;;
9675;SDS011;4876;42.656;23.292;2023-03-05T05:55:09;23.60;;;13.27;;
9675;SDS011;4876;42.656;23.292;2023-03-05T05:57:36;22.13;;;12.37;;
9675;SDS011;4876;42.656;23.292;2023-03-05T06:00:04;25.23;;;13.70;;
9675;SDS011;4876;42.656;23.292;2023-03-05T06:02:36;20.60;;;13.53;;
9675;SDS011;4876;42.656;23.292;2023-03-05T06:05:05;22.27;;;12.93;;
9675;SDS011;4876;42.656;23.292;2023-03-05T06:07:33;23.37;;;12.50;;
9675;SDS011;4876;42.656;23.292;2023-03-05T06:10:00;21.47;;;12.43;;
9675;SDS011;4876;42.656;23.292;2023-03-05T06:12:27;20.67;;;12.27;;
9675;SDS011;4876;42.656;23.292;2023-03-05T06:14:54;23.40;;;12.30;;
9675;SDS011;4876;42.656;23.292;2023-03-05T06:17:21;21.43;;;12.67;;
9675;SDS011;4876;42.656;23.292;2023-03-05T06:19:53;17.10;;;11.10;;
9675;SDS011;4876;42.656;23.292;2023-03-05T06:22:21;20.47;;;11.60;;
9675;SDS011;4876;42.656;23.292;2023-03-05T06:24:48;19.57;;;10.90;;
9675;SDS011;4876;42.656;23.292;2023-03-05T06:27:15;21.63;;;11.97;;
9675;SDS011;4876;42.656;23.292;2023-03-05T06:29:42;19.93;;;11.97;;
9675;SDS011;4876;42.656;23.292;2023-03-05T06:32:08;24.87;;;12.03;;
9675;SDS011;4876;42.656;23.292;2023-03-05T06:34:35;21.73;;;12.37;;
9675;SDS011;4876;42.656;23.292;2023-03-05T06:37:02;21.53;;;11.93;;
9675;SDS011;4876;42.656;23.292;2023-03-05T06:39:30;26.23;;;11.87;;
9675;SDS011;4876;42.656;23.292;2023-03-05T06:41:57;23.13;;;12.50;;
9675;SDS011;4876;42.656;23.292;2023-03-05T06:44:24;15.93;;;11.73;;
9675;SDS011;4876;42.656;23.292;2023-03-05T06:46:51;18.43;;;11.23;;
9675;SDS011;4876;42.656;23.292;2023-03-05T06:49:17;18.27;;;11.30;;
9675;SDS011;4876;42.656;23.292;2023-03-05T06:51:45;21.27;;;11.47;;
9675;SDS011;4876;42.656;23.292;2023-03-05T06:54:12;14.87;;;10.33;;
9675;SDS011;4876;42.656;23.292;2023-03-05T06:56:43;25.63;;;11.03;;
9675;SDS011;4876;42.656;23.292;2023-03-05T06:59:11;18.87;;;10.93;;
9675;SDS011;4876;42.656;23.292;2023-03-05T07:01:39;19.23;;;11.83;;
9675;SDS011;4876;42.656;23.292;2023-03-05T07:04:06;28.47;;;13.20;;
9675;SDS011;4876;42.656;23.292;2023-03-05T07:06:34;23.43;;;11.67;;
9675;SDS011;4876;42.656;23.292;2023-03-05T07:09:03;22.43;;;12.90;;
9675;SDS011;4876;42.656;23.292;2023-03-05T07:11:31;18.87;;;12.27;;
9675;SDS011;4876;42.656;23.292;2023-03-05T07:13:59;23.23;;;13.27;;
9675;SDS011;4876;42.656;23.292;2023-03-05T07:16:27;23.07;;;13.50;;
9675;SDS011;4876;42.656;23.292;2023-03-05T07:18:56;20.23;;;13.30;;
9675;SDS011;4876;42.656;23.292;2023-03-05T07:21:29;22.07;;;13.80;;
9675;SDS011;4876;42.656;23.292;2023-03-05T07:23:59;26.13;;;14.67;;
9675;SDS011;4876;42.656;23.292;2023-03-05T07:26:29;23.17;;;14.67;;
9675;SDS011;4876;42.656;23.292;2023-03-05T07:28:57;21.93;;;14.20;;
9675;SDS011;4876;42.656;23.292;2023-03-05T07:31:28;25.17;;;15.77;;
9675;SDS011;4876;42.656;23.292;2023-03-05T07:33:56;26.83;;;15.63;;
9675;SDS011;4876;42.656;23.292;2023-03-05T07:36:24;28.37;;;14.90;;
9675;SDS011;4876;42.656;23.292;2023-03-05T07:38:52;23.00;;;13.87;;
9675;SDS011;4876;42.656;23.292;2023-03-05T07:41:19;24.93;;;15.83;;
9675;SDS011;4876;42.656;23.292;2023-03-05T07:43:48;24.30;;;15.70;;
9675;SDS011;4876;42.656;23.292;2023-03-05T07:46:19;26.90;;;16.90;;
9675;SDS011;4876;42.656;23.292;2023-03-05T07:48:47;25.87;;;15.93;;
9675;SDS011;4876;42.656;23.292;2023-03-05T07:51:15;27.27;;;15.83;;
9675;SDS011;4876;42.656;23.292;2023-03-05T07:53:44;38.20;;;15.90;;
9675;SDS011;4876;42.656;23.292;2023-03-05T07:56:12;27.10;;;16.37;;
9675;SDS011;4876;42.656;23.292;2023-03-05T07:58:39;27.13;;;18.20;;
9675;SDS011;4876;42.656;23.292;2023-03-05T08:01:09;27.23;;;17.40;;
9675;SDS011;4876;42.656;23.292;2023-03-05T08:03:39;25.80;;;17.67;;
9675;SDS011;4876;42.656;23.292;2023-03-05T08:06:07;32.63;;;19.10;;
9675;SDS011;4876;42.656;23.292;2023-03-05T08:08:34;33.03;;;19.70;;
9675;SDS011;4876;42.656;23.292;2023-03-05T08:11:02;33.30;;;19.90;;
9675;SDS011;4876;42.656;23.292;2023-03-05T08:13:30;34.77;;;18.03;;
9675;SDS011;4876;42.656;23.292;2023-03-05T08:15:57;32.63;;;18.83;;
9675;SDS011;4876;42.656;23.292;2023-03-05T08:18:24;31.47;;;20.13;;
9675;SDS011;4876;42.656;23.292;2023-03-05T08:20:53;31.90;;;18.77;;
9675;SDS011;4876;42.656;23.292;2023-03-05T08:23:19;26.63;;;17.60;;
9675;SDS011;4876;42.656;23.292;2023-03-05T08:25:46;26.70;;;16.37;;
9675;SDS011;4876;42.656;23.292;2023-03-05T08:28:13;29.63;;;18.17;;
9675;SDS011;4876;42.656;23.292;2023-03-05T08:30:40;32.27;;;17.37;;
9675;SDS011;4876;42.656;23.292;2023-03-05T08:33:07;31.67;;;18.37;;
9675;SDS011;4876;42.656;23.292;2023-03-05T08:35:36;28.40;;;16.73;;
9675;SDS011;4876;42.656;23.292;2023-03-05T08:38:04;28.67;;;18.93;;
9675;SDS011;4876;42.656;23.292;2023-03-05T08:40:33;28.63;;;18.27;;
9675;SDS011;4876;42.656;23.292;2023-03-05T08:43:03;27.37;;;17.53;;
9675;SDS011;4876;42.656;23.292;2023-03-05T08:45:31;29.90;;;17.97;;
9675;SDS011;4876;42.656;23.292;2023-03-05T08:47:59;33.13;;;19.33;;
9675;SDS011;4876;42.656;23.292;2023-03-05T08:50:26;31.57;;;18.57;;
9675;SDS011;4876;42.656;23.292;2023-03-05T08:52:52;27.27;;;17.63;;
9675;SDS011;4876;42.656;23.292;2023-03-05T08:55:22;34.63;;;18.57;;
9675;SDS011;4876;42.656;23.292;2023-03-05T08:57:49;27.03;;;17.37;;
9675;SDS011;4876;42.656;23.292;2023-03-05T09:00:19;31.03;;;17.80;;
9675;SDS011;4876;42.656;23.292;2023-03-05T09:02:47;24.80;;;17.33;;
9675;SDS011;4876;42.656;23.292;2023-03-05T09:05:15;27.00;;;17.47;;
9675;SDS011;4876;42.656;23.292;2023-03-05T09:07:43;33.33;;;19.37;;
9675;SDS011;4876;42.656;23.292;2023-03-05T09:10:10;32.30;;;18.20;;
9675;SDS011;4876;42.656;23.292;2023-03-05T09:12:40;39.70;;;18.37;;
9675;SDS011;4876;42.656;23.292;2023-03-05T09:15:07;25.00;;;16.70;;
9675;SDS011;4876;42.656;23.292;2023-03-05T09:17:36;24.07;;;16.67;;
9675;SDS011;4876;42.656;23.292;2023-03-05T09:20:06;25.90;;;17.57;;
9675;SDS011;4876;42.656;23.292;2023-03-05T09:22:33;23.03;;;16.33;;
9675;SDS011;4876;42.656;23.292;2023-03-05T09:25:02;29.97;;;17.63;;
9675;SDS011;4876;42.656;23.292;2023-03-05T09:27:44;26.40;;;17.37;;
9675;SDS011;4876;42.656;23.292;2023-03-05T09:30:26;23.47;;;14.83;;
9675;SDS011;4876;42.656;23.292;2023-03-05T09:33:17;22.67;;;16.17;;
9675;SDS011;4876;42.656;23.292;2023-03-05T09:35:44;26.67;;;15.97;;
9675;SDS011;4876;42.656;23.292;2023-03-05T09:38:12;27.67;;;16.13;;
9675;SDS011;4876;42.656;23.292;2023-03-05T09:40:41;25.43;;;15.93;;
9675;SDS011;4876;42.656;23.292;2023-03-05T09:43:18;27.60;;;14.87;;
9675;SDS011;4876;42.656;23.292;2023-03-05T09:45:56;25.57;;;15.80;;
9675;SDS011;4876;42.656;23.292;2023-03-05T09:48:39;27.17;;;16.83;;
9675;SDS011;4876;42.656;23.292;2023-03-05T09:51:15;26.00;;;16.87;;
9675;SDS011;4876;42.656;23.292;2023-03-05T09:53:48;28.17;;;16.80;;
9675;SDS011;4876;42.656;23.292;2023-03-05T09:56:21;22.73;;;14.90;;
9675;SDS011;4876;42.656;23.292;2023-03-05T09:58:57;25.67;;;16.47;;
9675;SDS011;4876;42.656;23.292;2023-03-05T10:01:28;21.70;;;15.60;;
9675;SDS011;4876;42.656;23.292;2023-03-05T10:04:04;29.00;;;16.03;;
9675;SDS011;4876;42.656;23.292;2023-03-05T10:06:38;23.47;;;16.43;;
9675;SDS011;4876;42.656;23.292;2023-03-05T10:09:13;26.63;;;16.13;;
9675;SDS011;4876;42.656;23.292;2023-03-05T10:11:50;25.33;;;15.77;;
9675;SDS011;4876;42.656;23.292;2023-03-05T10:14:24;23.97;;;15.90;;
9675;SDS011;4876;42.656;23.292;2023-03-05T10:17:05;21.73;;;15.23;;
9675;SDS011;4876;42.656;23.292;2023-03-05T10:22:53;23.57;;;14.60;;
9675;SDS011;4876;42.656;23.292;2023-03-05T10:25:29;24.53;;;13.87;;
9675;SDS011;4876;42.656;23.292;2023-03-05T10:28:13;22.60;;;13.50;;
9675;SDS011;4876;42.656;23.292;2023-03-05T10:30:52;19.53;;;12.67;;
9675;SDS011;4876;42.656;23.292;2023-03-05T10:33:29;20.60;;;14.47;;
9675;SDS011;4876;42.656;23.292;2023-03-05T10:36:10;18.93;;;12.97;;
9675;SDS011;4876;42.656;23.292;2023-03-05T10:38:56;21.10;;;13.63;;
9675;SDS011;4876;42.656;23.292;2023-03-05T10:41:54;16.80;;;12.07;;
9675;SDS011;4876;42.656;23.292;2023-03-05T10:44:32;18.30;;;12.27;;
9675;SDS011;4876;42.656;23.292;2023-03-05T10:47:06;21.10;;;12.40;;
9675;SDS011;4876;42.656;23.292;2023-03-05T10:49:42;18.03;;;12.60;;
9675;SDS011;4876;42.656;23.292;2023-03-05T10:52:16;15.60;;;12.47;;
9675;SDS011;4876;42.656;23.292;2023-03-05T10:54:46;18.43;;;12.37;;
9675;SDS011;4876;42.656;23.292;2023-03-05T10:57:15;19.00;;;12.27;;
9675;SDS011;4876;42.656;23.292;2023-03-05T10:59:45;17.23;;;12.07;;
9675;SDS011;4876;42.656;23.292;2023-03-05T11:02:16;20.20;;;11.87;;
9675;SDS011;4876;42.656;23.292;2023-03-05T11:04:43;19.63;;;12.83;;
9675;SDS011;4876;42.656;23.292;2023-03-05T11:10:13;13.87;;;9.97;;
9675;SDS011;4876;42.656;23.292;2023-03-05T11:12:42;16.03;;;10.17;;
9675;SDS011;4876;42.656;23.292;2023-03-05T11:15:22;15.73;;;10.93;;
9675;SDS011;4876;42.656;23.292;2023-03-05T11:18:16;14.43;;;9.77;;
9675;SDS011;4876;42.656;23.292;2023-03-05T11:20:45;19.57;;;13.63;;
9675;SDS011;4876;42.656;23.292;2023-03-05T11:23:13;17.97;;;11.53;;
9675;SDS011;4876;42.656;23.292;2023-03-05T11:25:54;17.93;;;12.07;;
9675;SDS011;4876;42.656;23.292;2023-03-05T11:28:24;16.30;;;12.03;;
9675;SDS011;4876;42.656;23.292;2023-03-05T11:30:53;19.33;;;11.57;;
9675;SDS011;4876;42.656;23.292;2023-03-05T11:33:24;17.53;;;12.20;;
9675;SDS011;4876;42.656;23.292;2023-03-05T11:35:52;21.83;;;13.53;;
9675;SDS011;4876;42.656;23.292;2023-03-05T11:38:36;17.53;;;12.53;;
9675;SDS011;4876;42.656;23.292;2023-03-05T11:41:10;20.47;;;11.80;;
9675;SDS011;4876;42.656;23.292;2023-03-05T11:43:37;16.97;;;11.47;;
9675;SDS011;4876;42.656;23.292;2023-03-05T11:46:06;16.23;;;11.90;;
9675;SDS011;4876;42.656;23.292;2023-03-05T11:48:38;19.63;;;11.77;;
9675;SDS011;4876;42.656;23.292;2023-03-05T11:51:07;20.23;;;13.23;;
9675;SDS011;4876;42.656;23.292;2023-03-05T11:53:41;17.93;;;12.77;;
9675;SDS011;4876;42.656;23.292;2023-03-05T11:56:13;19.17;;;12.50;;
9675;SDS011;4876;42.656;23.292;2023-03-05T11:58:45;16.53;;;12.50;;
9675;SDS011;4876;42.656;23.292;2023-03-05T12:01:17;15.90;;;12.37;;
9675;SDS011;4876;42.656;23.292;2023-03-05T12:03:47;16.87;;;11.40;;
9675;SDS011;4876;42.656;23.292;2023-03-05T12:06:16;15.80;;;10.87;;
9675;SDS011;4876;42.656;23.292;2023-03-05T12:08:49;17.10;;;11.43;;
9675;SDS011;4876;42.656;23.292;2023-03-05T12:11:21;16.03;;;10.70;;
9675;SDS011;4876;42.656;23.292;2023-03-05T12:13:51;16.80;;;10.97;;
9675;SDS011;4876;42.656;23.292;2023-03-05T12:16:23;17.27;;;10.47;;
9675;SDS011;4876;42.656;23.292;2023-03-05T12:18:59;17.87;;;11.90;;
9675;SDS011;4876;42.656;23.292;2023-03-05T12:21:41;19.13;;;12.97;;
9675;SDS011;4876;42.656;23.292;2023-03-05T12:27:12;17.90;;;13.07;;
9675;SDS011;4876;42.656;23.292;2023-03-05T12:29:47;19.00;;;11.50;;
9675;SDS011;4876;42.656;23.292;2023-03-05T12:35:27;21.00;;;12.53;;
9675;SDS011;4876;42.656;23.292;2023-03-05T12:38:03;17.03;;;11.07;;
9675;SDS011;4876;42.656;23.292;2023-03-05T12:40:39;16.00;;;10.93;;
9675;SDS011;4876;42.656;23.292;2023-03-05T12:43:10;17.97;;;11.00;;
9675;SDS011;4876;42.656;23.292;2023-03-05T12:45:58;14.57;;;10.77;;
9675;SDS011;4876;42.656;23.292;2023-03-05T12:48:48;15.43;;;11.10;;
9675;SDS011;4876;42.656;23.292;2023-03-05T12:54:18;19.93;;;12.63;;
9675;SDS011;4876;42.656;23.292;2023-03-05T12:56:48;16.17;;;10.37;;
9675;SDS011;4876;42.656;23.292;2023-03-05T12:59:18;15.40;;;9.53;;
9675;SDS011;4876;42.656;23.292;2023-03-05T13:01:49;15.43;;;9.83;;
9675;SDS011;4876;42.656;23.292;2023-03-05T13:04:21;16.00;;;10.50;;
9675;SDS011;4876;42.656;23.292;2023-03-05T13:06:58;15.60;;;10.33;;
9675;SDS011;4876;42.656;23.292;2023-03-05T13:09:27;20.03;;;11.17;;
9675;SDS011;4876;42.656;23.292;2023-03-05T13:11:56;14.17;;;10.43;;
9675;SDS011;4876;42.656;23.292;2023-03-05T13:14:32;18.47;;;12.17;;
9675;SDS011;4876;42.656;23.292;2023-03-05T13:19:51;16.23;;;10.30;;
9675;SDS011;4876;42.656;23.292;2023-03-05T13:22:19;16.77;;;10.47;;
9675;SDS011;4876;42.656;23.292;2023-03-05T13:24:48;16.47;;;10.73;;
9675;SDS011;4876;42.656;23.292;2023-03-05T13:27:29;15.60;;;9.73;;
9675;SDS011;4876;42.656;23.292;2023-03-05T13:29:57;18.10;;;10.57;;
9675;SDS011;4876;42.656;23.292;2023-03-05T13:32:25;20.43;;;11.67;;
9675;SDS011;4876;42.656;23.292;2023-03-05T13:34:53;18.27;;;10.77;;
9675;SDS011;4876;42.656;23.292;2023-03-05T13:37:24;16.47;;;11.00;;
9675;SDS011;4876;42.656;23.292;2023-03-05T13:39:53;14.20;;;9.97;;
9675;SDS011;4876;42.656;23.292;2023-03-05T13:42:23;20.10;;;12.37;;
9675;SDS011;4876;42.656;23.292;2023-03-05T13:44:54;18.37;;;11.97;;
9675;SDS011;4876;42.656;23.292;2023-03-05T13:47:23;20.27;;;11.60;;
9675;SDS011;4876;42.656;23.292;2023-03-05T13:49:55;23.57;;;12.30;;
9675;SDS011;4876;42.656;23.292;2023-03-05T13:52:26;17.50;;;11.40;;
9675;SDS011;4876;42.656;23.292;2023-03-05T13:54:55;15.83;;;11.30;;
9675;SDS011;4876;42.656;23.292;2023-03-05T13:57:34;21.03;;;12.60;;
9675;SDS011;4876;42.656;23.292;2023-03-05T14:00:04;19.07;;;11.67;;
9675;SDS011;4876;42.656;23.292;2023-03-05T14:02:32;20.07;;;12.10;;
9675;SDS011;4876;42.656;23.292;2023-03-05T14:04:59;17.37;;;12.03;;
9675;SDS011;4876;42.656;23.292;2023-03-05T14:07:31;22.07;;;12.97;;
9675;SDS011;4876;42.656;23.292;2023-03-05T14:10:18;20.53;;;13.07;;
9675;SDS011;4876;42.656;23.292;2023-03-05T14:12:53;24.00;;;13.17;;
9675;SDS011;4876;42.656;23.292;2023-03-05T14:15:22;22.80;;;13.43;;
9675;SDS011;4876;42.656;23.292;2023-03-05T14:17:51;22.23;;;13.53;;
9675;SDS011;4876;42.656;23.292;2023-03-05T14:20:22;19.97;;;13.70;;
9675;SDS011;4876;42.656;23.292;2023-03-05T14:22:54;20.47;;;13.23;;
9675;SDS011;4876;42.656;23.292;2023-03-05T14:28:23;20.67;;;12.70;;
9675;SDS011;4876;42.656;23.292;2023-03-05T14:30:53;20.03;;;13.10;;
9675;SDS011;4876;42.656;23.292;2023-03-05T14:33:22;18.20;;;12.57;;
9675;SDS011;4876;42.656;23.292;2023-03-05T14:35:51;20.80;;;13.43;;
9675;SDS011;4876;42.656;23.292;2023-03-05T14:38:22;21.23;;;12.37;;
9675;SDS011;4876;42.656;23.292;2023-03-05T14:40:52;20.30;;;13.27;;
9675;SDS011;4876;42.656;23.292;2023-03-05T14:43:18;19.50;;;12.70;;
9675;SDS011;4876;42.656;23.292;2023-03-05T14:45:45;23.57;;;12.33;;
9675;SDS011;4876;42.656;23.292;2023-03-05T14:48:13;20.60;;;11.70;;
9675;SDS011;4876;42.656;23.292;2023-03-05T14:50:42;21.50;;;11.80;;
9675;SDS011;4876;42.656;23.292;2023-03-05T14:53:12;17.87;;;11.50;;
9675;SDS011;4876;42.656;23.292;2023-03-05T14:55:43;16.40;;;12.00;;
9675;SDS011;4876;42.656;23.292;2023-03-05T14:58:14;18.53;;;13.07;;
9675;SDS011;4876;42.656;23.292;2023-03-05T15:00:44;20.63;;;12.13;;
9675;SDS011;4876;42.656;23.292;2023-03-05T15:03:11;22.67;;;13.03;;
9675;SDS011;4876;42.656;23.292;2023-03-05T15:05:39;19.23;;;13.03;;
9675;SDS011;4876;42.656;23.292;2023-03-05T15:08:09;16.60;;;11.50;;
9675;SDS011;4876;42.656;23.292;2023-03-05T15:10:39;20.50;;;12.87;;
9675;SDS011;4876;42.656;23.292;2023-03-05T15:13:08;20.47;;;12.30;;